Tioga, West Virginia
Current Conditions -  °F | °C
As of 5:15 AM on Monday 26 Jan 2015 (Local Time) from KLWB Reporting Station
Haze Haze  
Wind Chill: 29°   Ceiling: 4800
Heat Index: 35°   Visibility: 4mi
Dew Point: 33°   Wind: 7mph
Humidity: 95%   Direction: 10°N
Pressure: 29.62"   Gusts: NA
Location:  38.42°N, 80.66°W
Report Text: KLWB 261015Z AUTO 01006KT 4SM BR SCT032 BKN048 OVC100 02/01 A2962 RMK AO2 T00150008
Loading
Personal Weather Stations






























Interactive Weather Map New forecast layout! Learn more

10-Day Weather Forecast

Advertisements
Track Severe Weather on mobile